sensor_id;sensor_type;location;lat;lon;timestamp;P1;durP1;ratioP1;P2;durP2;ratioP2
78732;SDS011;68056;52.530;5.454;2023-07-09T00:01:16;9.45;;;6.55;;
78732;SDS011;68056;52.530;5.454;2023-07-09T00:03:43;8.07;;;6.28;;
78732;SDS011;68056;52.530;5.454;2023-07-09T00:06:10;9.32;;;7.45;;
78732;SDS011;68056;52.530;5.454;2023-07-09T00:08:38;7.97;;;6.60;;
78732;SDS011;68056;52.530;5.454;2023-07-09T00:11:09;9.95;;;7.35;;
78732;SDS011;68056;52.530;5.454;2023-07-09T00:13:35;9.63;;;7.05;;
78732;SDS011;68056;52.530;5.454;2023-07-09T00:16:01;12.20;;;7.30;;
78732;SDS011;68056;52.530;5.454;2023-07-09T00:18:35;9.23;;;6.57;;
78732;SDS011;68056;52.530;5.454;2023-07-09T00:21:01;7.85;;;6.43;;
78732;SDS011;68056;52.530;5.454;2023-07-09T00:23:26;8.23;;;6.78;;
78732;SDS011;68056;52.530;5.454;2023-07-09T00:25:52;9.07;;;6.10;;
78732;SDS011;68056;52.530;5.454;2023-07-09T00:28:18;8.07;;;5.97;;
78732;SDS011;68056;52.530;5.454;2023-07-09T00:30:45;11.32;;;6.57;;
78732;SDS011;68056;52.530;5.454;2023-07-09T00:33:11;8.70;;;5.60;;
78732;SDS011;68056;52.530;5.454;2023-07-09T00:35:44;8.40;;;5.53;;
78732;SDS011;68056;52.530;5.454;2023-07-09T00:38:12;7.78;;;6.25;;
78732;SDS011;68056;52.530;5.454;2023-07-09T00:40:43;9.45;;;5.85;;
78732;SDS011;68056;52.530;5.454;2023-07-09T00:43:21;7.55;;;5.95;;
78732;SDS011;68056;52.530;5.454;2023-07-09T00:46:07;8.20;;;6.05;;
78732;SDS011;68056;52.530;5.454;2023-07-09T00:48:48;6.43;;;5.43;;
78732;SDS011;68056;52.530;5.454;2023-07-09T00:51:17;7.63;;;5.43;;
78732;SDS011;68056;52.530;5.454;2023-07-09T00:53:46;7.15;;;5.90;;
78732;SDS011;68056;52.530;5.454;2023-07-09T00:56:16;7.13;;;5.65;;
78732;SDS011;68056;52.530;5.454;2023-07-09T00:58:50;8.38;;;6.13;;
78732;SDS011;68056;52.530;5.454;2023-07-09T01:01:18;7.50;;;6.10;;
78732;SDS011;68056;52.530;5.454;2023-07-09T01:03:45;6.35;;;5.65;;
78732;SDS011;68056;52.530;5.454;2023-07-09T01:06:15;6.68;;;5.22;;
78732;SDS011;68056;52.530;5.454;2023-07-09T01:08:50;7.60;;;6.03;;
78732;SDS011;68056;52.530;5.454;2023-07-09T01:11:19;7.40;;;5.72;;
78732;SDS011;68056;52.530;5.454;2023-07-09T01:13:49;7.43;;;5.78;;
78732;SDS011;68056;52.530;5.454;2023-07-09T01:16:25;7.60;;;5.45;;
78732;SDS011;68056;52.530;5.454;2023-07-09T01:18:54;8.10;;;5.32;;
78732;SDS011;68056;52.530;5.454;2023-07-09T01:21:19;7.05;;;5.63;;
78732;SDS011;68056;52.530;5.454;2023-07-09T01:23:46;7.82;;;6.28;;
78732;SDS011;68056;52.530;5.454;2023-07-09T01:26:14;8.00;;;5.88;;
78732;SDS011;68056;52.530;5.454;2023-07-09T01:28:42;7.85;;;5.57;;
78732;SDS011;68056;52.530;5.454;2023-07-09T01:31:11;9.38;;;5.88;;
78732;SDS011;68056;52.530;5.454;2023-07-09T01:33:39;8.63;;;6.05;;
78732;SDS011;68056;52.530;5.454;2023-07-09T01:36:05;8.98;;;5.85;;
78732;SDS011;68056;52.530;5.454;2023-07-09T01:38:32;8.02;;;5.43;;
78732;SDS011;68056;52.530;5.454;2023-07-09T01:40:58;8.35;;;5.32;;
78732;SDS011;68056;52.530;5.454;2023-07-09T01:43:25;7.05;;;5.53;;
78732;SDS011;68056;52.530;5.454;2023-07-09T01:45:51;6.82;;;5.75;;
78732;SDS011;68056;52.530;5.454;2023-07-09T01:48:18;9.20;;;6.05;;
78732;SDS011;68056;52.530;5.454;2023-07-09T01:50:45;6.70;;;5.32;;
78732;SDS011;68056;52.530;5.454;2023-07-09T01:53:14;6.95;;;5.90;;
78732;SDS011;68056;52.530;5.454;2023-07-09T01:55:42;7.30;;;5.65;;
78732;SDS011;68056;52.530;5.454;2023-07-09T01:58:09;7.00;;;5.68;;
78732;SDS011;68056;52.530;5.454;2023-07-09T02:00:36;7.18;;;6.13;;
78732;SDS011;68056;52.530;5.454;2023-07-09T02:03:02;6.25;;;5.40;;
78732;SDS011;68056;52.530;5.454;2023-07-09T02:05:30;7.18;;;5.65;;
78732;SDS011;68056;52.530;5.454;2023-07-09T02:07:57;7.60;;;5.93;;
78732;SDS011;68056;52.530;5.454;2023-07-09T02:10:23;5.75;;;4.75;;
78732;SDS011;68056;52.530;5.454;2023-07-09T02:12:49;6.80;;;5.30;;
78732;SDS011;68056;52.530;5.454;2023-07-09T02:15:15;7.55;;;5.82;;
78732;SDS011;68056;52.530;5.454;2023-07-09T02:17:41;6.85;;;5.40;;
78732;SDS011;68056;52.530;5.454;2023-07-09T02:20:08;6.85;;;5.63;;
78732;SDS011;68056;52.530;5.454;2023-07-09T02:22:35;9.63;;;5.65;;
78732;SDS011;68056;52.530;5.454;2023-07-09T02:25:02;6.82;;;5.32;;
78732;SDS011;68056;52.530;5.454;2023-07-09T02:27:29;7.00;;;5.55;;
78732;SDS011;68056;52.530;5.454;2023-07-09T02:29:54;6.90;;;5.43;;
78732;SDS011;68056;52.530;5.454;2023-07-09T02:32:22;6.53;;;5.35;;
78732;SDS011;68056;52.530;5.454;2023-07-09T02:34:50;8.60;;;6.10;;
78732;SDS011;68056;52.530;5.454;2023-07-09T02:39:44;8.02;;;5.10;;
78732;SDS011;68056;52.530;5.454;2023-07-09T02:42:10;6.97;;;5.40;;
78732;SDS011;68056;52.530;5.454;2023-07-09T02:44:38;6.43;;;5.35;;
78732;SDS011;68056;52.530;5.454;2023-07-09T02:47:14;7.30;;;5.28;;
78732;SDS011;68056;52.530;5.454;2023-07-09T02:49:40;7.05;;;5.38;;
78732;SDS011;68056;52.530;5.454;2023-07-09T02:52:06;7.78;;;5.53;;
78732;SDS011;68056;52.530;5.454;2023-07-09T02:54:32;6.97;;;5.28;;
78732;SDS011;68056;52.530;5.454;2023-07-09T02:56:58;6.30;;;5.45;;
78732;SDS011;68056;52.530;5.454;2023-07-09T02:59:24;6.60;;;5.70;;
78732;SDS011;68056;52.530;5.454;2023-07-09T03:01:51;7.57;;;4.90;;
78732;SDS011;68056;52.530;5.454;2023-07-09T03:04:17;9.80;;;6.05;;
78732;SDS011;68056;52.530;5.454;2023-07-09T03:06:45;5.80;;;5.20;;
78732;SDS011;68056;52.530;5.454;2023-07-09T03:09:11;7.28;;;5.18;;
78732;SDS011;68056;52.530;5.454;2023-07-09T03:11:36;6.90;;;5.00;;
78732;SDS011;68056;52.530;5.454;2023-07-09T03:14:02;7.03;;;6.05;;
78732;SDS011;68056;52.530;5.454;2023-07-09T03:16:29;6.35;;;4.75;;
78732;SDS011;68056;52.530;5.454;2023-07-09T03:18:56;7.72;;;5.32;;
78732;SDS011;68056;52.530;5.454;2023-07-09T03:21:23;5.90;;;5.00;;
78732;SDS011;68056;52.530;5.454;2023-07-09T03:23:49;9.05;;;5.35;;
78732;SDS011;68056;52.530;5.454;2023-07-09T03:26:15;8.82;;;5.65;;
78732;SDS011;68056;52.530;5.454;2023-07-09T03:28:41;10.27;;;5.43;;
78732;SDS011;68056;52.530;5.454;2023-07-09T03:31:07;10.05;;;5.22;;
78732;SDS011;68056;52.530;5.454;2023-07-09T03:33:33;7.72;;;5.10;;
78732;SDS011;68056;52.530;5.454;2023-07-09T03:35:58;7.55;;;5.38;;
78732;SDS011;68056;52.530;5.454;2023-07-09T03:38:24;6.82;;;4.82;;
78732;SDS011;68056;52.530;5.454;2023-07-09T03:40:53;6.18;;;4.88;;
78732;SDS011;68056;52.530;5.454;2023-07-09T03:43:20;6.93;;;5.60;;
78732;SDS011;68056;52.530;5.454;2023-07-09T03:45:46;7.25;;;5.65;;
78732;SDS011;68056;52.530;5.454;2023-07-09T03:48:12;6.72;;;5.18;;
78732;SDS011;68056;52.530;5.454;2023-07-09T03:50:39;8.27;;;5.65;;
78732;SDS011;68056;52.530;5.454;2023-07-09T03:53:04;6.40;;;5.50;;
78732;SDS011;68056;52.530;5.454;2023-07-09T03:55:31;5.30;;;4.80;;
78732;SDS011;68056;52.530;5.454;2023-07-09T03:57:57;6.15;;;4.82;;
78732;SDS011;68056;52.530;5.454;2023-07-09T04:00:23;7.25;;;5.55;;
78732;SDS011;68056;52.530;5.454;2023-07-09T04:02:50;5.43;;;4.93;;
78732;SDS011;68056;52.530;5.454;2023-07-09T04:05:16;6.82;;;4.85;;
78732;SDS011;68056;52.530;5.454;2023-07-09T04:07:42;6.65;;;5.60;;
78732;SDS011;68056;52.530;5.454;2023-07-09T04:12:35;6.00;;;4.75;;
78732;SDS011;68056;52.530;5.454;2023-07-09T04:15:02;7.80;;;5.15;;
78732;SDS011;68056;52.530;5.454;2023-07-09T04:17:29;6.60;;;4.88;;
78732;SDS011;68056;52.530;5.454;2023-07-09T04:19:54;5.53;;;4.72;;
78732;SDS011;68056;52.530;5.454;2023-07-09T04:22:20;6.10;;;4.97;;
78732;SDS011;68056;52.530;5.454;2023-07-09T04:24:46;8.07;;;5.20;;
78732;SDS011;68056;52.530;5.454;2023-07-09T04:27:12;6.85;;;4.95;;
78732;SDS011;68056;52.530;5.454;2023-07-09T04:29:39;6.18;;;4.80;;
78732;SDS011;68056;52.530;5.454;2023-07-09T04:32:05;6.88;;;5.47;;
78732;SDS011;68056;52.530;5.454;2023-07-09T04:34:32;5.85;;;4.95;;
78732;SDS011;68056;52.530;5.454;2023-07-09T04:36:57;5.63;;;4.75;;
78732;SDS011;68056;52.530;5.454;2023-07-09T04:39:23;6.32;;;4.93;;
78732;SDS011;68056;52.530;5.454;2023-07-09T04:41:49;6.88;;;5.35;;
78732;SDS011;68056;52.530;5.454;2023-07-09T04:44:14;7.50;;;5.15;;
78732;SDS011;68056;52.530;5.454;2023-07-09T04:46:40;6.38;;;5.15;;
78732;SDS011;68056;52.530;5.454;2023-07-09T04:49:06;7.28;;;5.53;;
78732;SDS011;68056;52.530;5.454;2023-07-09T04:51:31;7.40;;;5.05;;
78732;SDS011;68056;52.530;5.454;2023-07-09T04:53:58;6.53;;;5.10;;
78732;SDS011;68056;52.530;5.454;2023-07-09T04:56:28;6.38;;;4.78;;
78732;SDS011;68056;52.530;5.454;2023-07-09T04:58:54;7.25;;;5.45;;
78732;SDS011;68056;52.530;5.454;2023-07-09T05:01:20;6.93;;;5.38;;
78732;SDS011;68056;52.530;5.454;2023-07-09T05:03:46;6.63;;;5.40;;
78732;SDS011;68056;52.530;5.454;2023-07-09T05:06:14;6.38;;;5.13;;
78732;SDS011;68056;52.530;5.454;2023-07-09T05:08:40;6.85;;;5.38;;
78732;SDS011;68056;52.530;5.454;2023-07-09T05:11:07;10.48;;;6.38;;
78732;SDS011;68056;52.530;5.454;2023-07-09T05:13:32;7.47;;;5.50;;
78732;SDS011;68056;52.530;5.454;2023-07-09T05:15:58;8.45;;;5.78;;
78732;SDS011;68056;52.530;5.454;2023-07-09T05:18:24;8.35;;;5.53;;
78732;SDS011;68056;52.530;5.454;2023-07-09T05:20:50;7.25;;;5.75;;
78732;SDS011;68056;52.530;5.454;2023-07-09T05:23:15;8.75;;;6.22;;
78732;SDS011;68056;52.530;5.454;2023-07-09T05:25:41;6.72;;;5.15;;
78732;SDS011;68056;52.530;5.454;2023-07-09T05:28:07;7.22;;;5.18;;
78732;SDS011;68056;52.530;5.454;2023-07-09T05:30:32;8.27;;;5.50;;
78732;SDS011;68056;52.530;5.454;2023-07-09T05:32:58;8.30;;;6.40;;
78732;SDS011;68056;52.530;5.454;2023-07-09T05:35:24;12.43;;;5.75;;
78732;SDS011;68056;52.530;5.454;2023-07-09T05:37:53;7.15;;;5.22;;
78732;SDS011;68056;52.530;5.454;2023-07-09T05:40:19;6.80;;;4.78;;
78732;SDS011;68056;52.530;5.454;2023-07-09T05:42:46;9.20;;;5.75;;
78732;SDS011;68056;52.530;5.454;2023-07-09T05:45:12;7.00;;;5.60;;
78732;SDS011;68056;52.530;5.454;2023-07-09T05:47:38;8.23;;;5.82;;
78732;SDS011;68056;52.530;5.454;2023-07-09T05:50:04;7.32;;;6.03;;
78732;SDS011;68056;52.530;5.454;2023-07-09T05:52:30;8.10;;;6.22;;
78732;SDS011;68056;52.530;5.454;2023-07-09T05:54:56;7.57;;;5.68;;
78732;SDS011;68056;52.530;5.454;2023-07-09T05:57:21;7.20;;;5.80;;
78732;SDS011;68056;52.530;5.454;2023-07-09T05:59:47;9.05;;;6.72;;
78732;SDS011;68056;52.530;5.454;2023-07-09T06:02:16;8.65;;;6.35;;
78732;SDS011;68056;52.530;5.454;2023-07-09T06:04:43;9.60;;;6.07;;
78732;SDS011;68056;52.530;5.454;2023-07-09T06:07:09;6.50;;;5.63;;
78732;SDS011;68056;52.530;5.454;2023-07-09T06:09:35;11.00;;;7.43;;
78732;SDS011;68056;52.530;5.454;2023-07-09T06:12:01;8.95;;;6.65;;
78732;SDS011;68056;52.530;5.454;2023-07-09T06:14:27;8.15;;;6.55;;
78732;SDS011;68056;52.530;5.454;2023-07-09T06:16:53;8.55;;;5.75;;
78732;SDS011;68056;52.530;5.454;2023-07-09T06:19:21;8.00;;;6.13;;
78732;SDS011;68056;52.530;5.454;2023-07-09T06:21:46;10.35;;;6.35;;
78732;SDS011;68056;52.530;5.454;2023-07-09T06:24:13;11.07;;;6.55;;
78732;SDS011;68056;52.530;5.454;2023-07-09T06:26:39;8.57;;;6.47;;
78732;SDS011;68056;52.530;5.454;2023-07-09T06:29:04;7.93;;;5.43;;
78732;SDS011;68056;52.530;5.454;2023-07-09T06:31:30;7.63;;;6.05;;
78732;SDS011;68056;52.530;5.454;2023-07-09T06:33:56;8.30;;;5.65;;
78732;SDS011;68056;52.530;5.454;2023-07-09T06:36:22;6.95;;;5.13;;
78732;SDS011;68056;52.530;5.454;2023-07-09T06:38:47;9.85;;;6.80;;
78732;SDS011;68056;52.530;5.454;2023-07-09T06:41:13;8.38;;;6.50;;
78732;SDS011;68056;52.530;5.454;2023-07-09T06:43:40;6.97;;;5.70;;
78732;SDS011;68056;52.530;5.454;2023-07-09T06:46:06;10.73;;;6.25;;
78732;SDS011;68056;52.530;5.454;2023-07-09T06:48:35;12.45;;;7.00;;
78732;SDS011;68056;52.530;5.454;2023-07-09T06:51:00;8.10;;;6.07;;
78732;SDS011;68056;52.530;5.454;2023-07-09T06:53:27;8.77;;;5.80;;
78732;SDS011;68056;52.530;5.454;2023-07-09T06:55:53;8.95;;;6.93;;
78732;SDS011;68056;52.530;5.454;2023-07-09T06:58:20;9.48;;;6.82;;
78732;SDS011;68056;52.530;5.454;2023-07-09T07:00:50;8.30;;;5.53;;
78732;SDS011;68056;52.530;5.454;2023-07-09T07:03:16;9.65;;;6.35;;
78732;SDS011;68056;52.530;5.454;2023-07-09T07:05:46;9.40;;;6.93;;
78732;SDS011;68056;52.530;5.454;2023-07-09T07:08:17;10.45;;;7.53;;
78732;SDS011;68056;52.530;5.454;2023-07-09T07:10:44;10.93;;;7.38;;
78732;SDS011;68056;52.530;5.454;2023-07-09T07:13:12;9.82;;;7.53;;
78732;SDS011;68056;52.530;5.454;2023-07-09T07:15:37;8.93;;;7.53;;
78732;SDS011;68056;52.530;5.454;2023-07-09T07:18:04;13.43;;;7.95;;
78732;SDS011;68056;52.530;5.454;2023-07-09T07:20:30;9.77;;;8.15;;
78732;SDS011;68056;52.530;5.454;2023-07-09T07:22:56;12.10;;;8.68;;
78732;SDS011;68056;52.530;5.454;2023-07-09T07:25:23;14.93;;;11.15;;
78732;SDS011;68056;52.530;5.454;2023-07-09T07:27:49;15.10;;;10.20;;
78732;SDS011;68056;52.530;5.454;2023-07-09T07:30:15;14.52;;;10.88;;
78732;SDS011;68056;52.530;5.454;2023-07-09T07:32:44;13.13;;;11.75;;
78732;SDS011;68056;52.530;5.454;2023-07-09T07:35:11;14.77;;;10.60;;
78732;SDS011;68056;52.530;5.454;2023-07-09T07:37:38;14.82;;;12.23;;
78732;SDS011;68056;52.530;5.454;2023-07-09T07:40:07;17.35;;;12.00;;
78732;SDS011;68056;52.530;5.454;2023-07-09T07:42:33;17.23;;;13.45;;
78732;SDS011;68056;52.530;5.454;2023-07-09T07:44:59;13.45;;;11.85;;
78732;SDS011;68056;52.530;5.454;2023-07-09T07:47:25;16.98;;;14.23;;
78732;SDS011;68056;52.530;5.454;2023-07-09T07:52:17;15.35;;;12.70;;
78732;SDS011;68056;52.530;5.454;2023-07-09T07:54:43;17.35;;;13.65;;
78732;SDS011;68056;52.530;5.454;2023-07-09T07:57:09;16.73;;;13.27;;
78732;SDS011;68056;52.530;5.454;2023-07-09T07:59:35;19.30;;;14.98;;
78732;SDS011;68056;52.530;5.454;2023-07-09T08:02:02;17.45;;;13.73;;
78732;SDS011;68056;52.530;5.454;2023-07-09T08:04:31;15.63;;;13.00;;
78732;SDS011;68056;52.530;5.454;2023-07-09T08:06:57;18.13;;;15.57;;
78732;SDS011;68056;52.530;5.454;2023-07-09T08:09:23;18.27;;;14.35;;
78732;SDS011;68056;52.530;5.454;2023-07-09T08:11:49;20.38;;;14.68;;
78732;SDS011;68056;52.530;5.454;2023-07-09T08:14:15;18.00;;;15.32;;
78732;SDS011;68056;52.530;5.454;2023-07-09T08:16:41;16.23;;;13.57;;
78732;SDS011;68056;52.530;5.454;2023-07-09T08:19:07;14.98;;;12.88;;
78732;SDS011;68056;52.530;5.454;2023-07-09T08:21:32;15.48;;;13.27;;
78732;SDS011;68056;52.530;5.454;2023-07-09T08:23:58;16.52;;;13.25;;
78732;SDS011;68056;52.530;5.454;2023-07-09T08:26:24;16.42;;;14.70;;
78732;SDS011;68056;52.530;5.454;2023-07-09T08:28:50;16.75;;;13.70;;
78732;SDS011;68056;52.530;5.454;2023-07-09T08:31:16;15.48;;;11.52;;
78732;SDS011;68056;52.530;5.454;2023-07-09T08:33:42;16.80;;;12.82;;
78732;SDS011;68056;52.530;5.454;2023-07-09T08:36:07;14.93;;;11.90;;
78732;SDS011;68056;52.530;5.454;2023-07-09T08:38:33;15.82;;;12.95;;
78732;SDS011;68056;52.530;5.454;2023-07-09T08:41:00;14.07;;;11.60;;
78732;SDS011;68056;52.530;5.454;2023-07-09T08:43:49;11.70;;;10.43;;
78732;SDS011;68056;52.530;5.454;2023-07-09T08:46:38;12.52;;;9.23;;
78732;SDS011;68056;52.530;5.454;2023-07-09T08:49:40;12.73;;;8.30;;
78732;SDS011;68056;52.530;5.454;2023-07-09T08:52:16;11.95;;;9.00;;
78732;SDS011;68056;52.530;5.454;2023-07-09T08:54:55;11.93;;;9.23;;
78732;SDS011;68056;52.530;5.454;2023-07-09T08:57:29;9.95;;;7.25;;
78732;SDS011;68056;52.530;5.454;2023-07-09T09:00:16;9.93;;;7.40;;
78732;SDS011;68056;52.530;5.454;2023-07-09T09:03:10;7.15;;;5.82;;
78732;SDS011;68056;52.530;5.454;2023-07-09T09:05:41;7.97;;;7.18;;
78732;SDS011;68056;52.530;5.454;2023-07-09T09:13:35;9.35;;;6.82;;
78732;SDS011;68056;52.530;5.454;2023-07-09T09:16:04;10.65;;;8.10;;
78732;SDS011;68056;52.530;5.454;2023-07-09T09:18:37;10.25;;;8.60;;
78732;SDS011;68056;52.530;5.454;2023-07-09T09:23:51;9.30;;;8.18;;
78732;SDS011;68056;52.530;5.454;2023-07-09T09:26:21;10.10;;;8.80;;
78732;SDS011;68056;52.530;5.454;2023-07-09T09:28:55;9.23;;;7.78;;
78732;SDS011;68056;52.530;5.454;2023-07-09T09:31:22;10.30;;;8.05;;
78732;SDS011;68056;52.530;5.454;2023-07-09T09:33:51;10.02;;;7.63;;
78732;SDS011;68056;52.530;5.454;2023-07-09T09:36:21;8.57;;;7.43;;
78732;SDS011;68056;52.530;5.454;2023-07-09T09:38:49;8.32;;;6.68;;
78732;SDS011;68056;52.530;5.454;2023-07-09T09:41:23;9.13;;;6.88;;
78732;SDS011;68056;52.530;5.454;2023-07-09T09:43:52;7.55;;;5.75;;
78732;SDS011;68056;52.530;5.454;2023-07-09T09:46:19;6.00;;;5.50;;
78732;SDS011;68056;52.530;5.454;2023-07-09T09:48:48;7.07;;;5.53;;
78732;SDS011;68056;52.530;5.454;2023-07-09T09:51:16;5.97;;;5.07;;
78732;SDS011;68056;52.530;5.454;2023-07-09T09:53:51;6.50;;;5.28;;
78732;SDS011;68056;52.530;5.454;2023-07-09T09:56:30;7.75;;;5.75;;
78732;SDS011;68056;52.530;5.454;2023-07-09T09:58:59;6.63;;;5.20;;
78732;SDS011;68056;52.530;5.454;2023-07-09T10:01:35;7.55;;;5.70;;
78732;SDS011;68056;52.530;5.454;2023-07-09T10:04:03;7.22;;;5.85;;
78732;SDS011;68056;52.530;5.454;2023-07-09T10:06:36;7.10;;;6.18;;
78732;SDS011;68056;52.530;5.454;2023-07-09T10:14:33;9.93;;;6.68;;
78732;SDS011;68056;52.530;5.454;2023-07-09T10:22:48;8.68;;;6.80;;
78732;SDS011;68056;52.530;5.454;2023-07-09T10:28:16;7.65;;;6.50;;
78732;SDS011;68056;52.530;5.454;2023-07-09T10:33:42;7.32;;;6.40;;
78732;SDS011;68056;52.530;5.454;2023-07-09T10:36:29;9.07;;;6.05;;
78732;SDS011;68056;52.530;5.454;2023-07-09T10:39:15;11.25;;;5.97;;
78732;SDS011;68056;52.530;5.454;2023-07-09T10:41:44;6.85;;;5.63;;
78732;SDS011;68056;52.530;5.454;2023-07-09T10:44:19;7.90;;;6.45;;
78732;SDS011;68056;52.530;5.454;2023-07-09T10:46:50;6.20;;;4.95;;
78732;SDS011;68056;52.530;5.454;2023-07-09T10:49:36;6.75;;;5.93;;
78732;SDS011;68056;52.530;5.454;2023-07-09T10:52:06;8.82;;;6.05;;
78732;SDS011;68056;52.530;5.454;2023-07-09T11:00:27;6.15;;;5.53;;
78732;SDS011;68056;52.530;5.454;2023-07-09T11:03:24;7.22;;;5.55;;
78732;SDS011;68056;52.530;5.454;2023-07-09T11:05:54;5.93;;;4.90;;
78732;SDS011;68056;52.530;5.454;2023-07-09T11:08:21;5.40;;;4.90;;
78732;SDS011;68056;52.530;5.454;2023-07-09T11:10:55;5.65;;;4.47;;
78732;SDS011;68056;52.530;5.454;2023-07-09T11:16:02;5.97;;;4.35;;
78732;SDS011;68056;52.530;5.454;2023-07-09T11:18:31;6.30;;;4.63;;
78732;SDS011;68056;52.530;5.454;2023-07-09T11:21:15;6.35;;;4.38;;
78732;SDS011;68056;52.530;5.454;2023-07-09T11:23:47;5.15;;;4.35;;
78732;SDS011;68056;52.530;5.454;2023-07-09T11:26:26;5.18;;;4.68;;
78732;SDS011;68056;52.530;5.454;2023-07-09T11:28:54;6.30;;;4.38;;
78732;SDS011;68056;52.530;5.454;2023-07-09T11:31:35;6.22;;;5.05;;
78732;SDS011;68056;52.530;5.454;2023-07-09T11:36:33;5.32;;;4.13;;
78732;SDS011;68056;52.530;5.454;2023-07-09T11:39:00;4.60;;;4.18;;
78732;SDS011;68056;52.530;5.454;2023-07-09T11:49:46;6.18;;;4.40;;
78732;SDS011;68056;52.530;5.454;2023-07-09T11:52:39;5.57;;;4.05;;
78732;SDS011;68056;52.530;5.454;2023-07-09T11:55:26;4.68;;;4.15;;
78732;SDS011;68056;52.530;5.454;2023-07-09T11:58:16;4.88;;;4.30;;
78732;SDS011;68056;52.530;5.454;2023-07-09T12:01:01;6.13;;;4.63;;
78732;SDS011;68056;52.530;5.454;2023-07-09T12:03:33;5.03;;;3.80;;
78732;SDS011;68056;52.530;5.454;2023-07-09T12:06:02;5.38;;;3.53;;
78732;SDS011;68056;52.530;5.454;2023-07-09T12:08:32;4.10;;;3.53;;
78732;SDS011;68056;52.530;5.454;2023-07-09T12:11:00;4.72;;;3.55;;
78732;SDS011;68056;52.530;5.454;2023-07-09T12:13:25;6.47;;;3.53;;
78732;SDS011;68056;52.530;5.454;2023-07-09T12:15:51;4.00;;;3.47;;
78732;SDS011;68056;52.530;5.454;2023-07-09T12:18:22;5.47;;;3.00;;
78732;SDS011;68056;52.530;5.454;2023-07-09T12:21:04;5.72;;;3.03;;
78732;SDS011;68056;52.530;5.454;2023-07-09T12:23:34;4.35;;;2.85;;
78732;SDS011;68056;52.530;5.454;2023-07-09T12:28:28;4.03;;;3.20;;
78732;SDS011;68056;52.530;5.454;2023-07-09T12:30:55;6.28;;;3.42;;
78732;SDS011;68056;52.530;5.454;2023-07-09T12:33:23;6.10;;;3.97;;
78732;SDS011;68056;52.530;5.454;2023-07-09T12:36:09;5.90;;;3.65;;
78732;SDS011;68056;52.530;5.454;2023-07-09T12:38:42;6.47;;;4.68;;
78732;SDS011;68056;52.530;5.454;2023-07-09T12:41:23;6.50;;;3.97;;
78732;SDS011;68056;52.530;5.454;2023-07-09T12:44:03;8.95;;;4.15;;
78732;SDS011;68056;52.530;5.454;2023-07-09T12:46:30;4.82;;;4.32;;
78732;SDS011;68056;52.530;5.454;2023-07-09T12:48:56;5.88;;;4.00;;
78732;SDS011;68056;52.530;5.454;2023-07-09T12:51:22;5.03;;;3.60;;
78732;SDS011;68056;52.530;5.454;2023-07-09T12:54:14;4.40;;;3.35;;
78732;SDS011;68056;52.530;5.454;2023-07-09T12:56:42;3.92;;;2.60;;
78732;SDS011;68056;52.530;5.454;2023-07-09T13:01:48;2.92;;;2.60;;
78732;SDS011;68056;52.530;5.454;2023-07-09T13:04:16;3.35;;;2.35;;
78732;SDS011;68056;52.530;5.454;2023-07-09T13:06:42;3.38;;;2.85;;
78732;SDS011;68056;52.530;5.454;2023-07-09T13:09:11;4.35;;;3.00;;
78732;SDS011;68056;52.530;5.454;2023-07-09T13:11:44;3.33;;;2.72;;
78732;SDS011;68056;52.530;5.454;2023-07-09T13:14:19;2.53;;;2.20;;
78732;SDS011;68056;52.530;5.454;2023-07-09T13:16:52;5.10;;;2.63;;
78732;SDS011;68056;52.530;5.454;2023-07-09T13:19:18;3.50;;;2.38;;
78732;SDS011;68056;52.530;5.454;2023-07-09T13:21:44;2.97;;;2.60;;
78732;SDS011;68056;52.530;5.454;2023-07-09T13:24:20;3.05;;;2.53;;
78732;SDS011;68056;52.530;5.454;2023-07-09T13:26:48;2.50;;;2.10;;
78732;SDS011;68056;52.530;5.454;2023-07-09T13:29:15;4.38;;;2.50;;
78732;SDS011;68056;52.530;5.454;2023-07-09T13:31:45;4.28;;;2.75;;
78732;SDS011;68056;52.530;5.454;2023-07-09T13:34:21;2.55;;;2.33;;
78732;SDS011;68056;52.530;5.454;2023-07-09T13:36:50;3.30;;;2.22;;
78732;SDS011;68056;52.530;5.454;2023-07-09T13:39:20;4.25;;;2.85;;
78732;SDS011;68056;52.530;5.454;2023-07-09T13:41:47;4.75;;;2.78;;
78732;SDS011;68056;52.530;5.454;2023-07-09T13:44:15;4.47;;;3.15;;
78732;SDS011;68056;52.530;5.454;2023-07-09T13:46:41;4.50;;;3.05;;
78732;SDS011;68056;52.530;5.454;2023-07-09T13:49:08;6.22;;;3.40;;
78732;SDS011;68056;52.530;5.454;2023-07-09T13:51:35;5.90;;;3.15;;
78732;SDS011;68056;52.530;5.454;2023-07-09T13:54:05;4.18;;;2.63;;
78732;SDS011;68056;52.530;5.454;2023-07-09T13:56:44;3.60;;;2.83;;
78732;SDS011;68056;52.530;5.454;2023-07-09T13:59:14;4.68;;;3.22;;
78732;SDS011;68056;52.530;5.454;2023-07-09T14:01:44;5.60;;;2.47;;
78732;SDS011;68056;52.530;5.454;2023-07-09T14:06:39;4.45;;;1.90;;
78732;SDS011;68056;52.530;5.454;2023-07-09T14:09:10;4.32;;;2.00;;
78732;SDS011;68056;52.530;5.454;2023-07-09T14:11:38;4.97;;;2.38;;
78732;SDS011;68056;52.530;5.454;2023-07-09T14:14:22;5.70;;;2.28;;
78732;SDS011;68056;52.530;5.454;2023-07-09T14:16:51;6.13;;;3.10;;
78732;SDS011;68056;52.530;5.454;2023-07-09T14:19:18;5.32;;;2.67;;
78732;SDS011;68056;52.530;5.454;2023-07-09T14:21:46;7.20;;;3.20;;
78732;SDS011;68056;52.530;5.454;2023-07-09T14:24:23;6.60;;;3.28;;
78732;SDS011;68056;52.530;5.454;2023-07-09T14:26:51;6.07;;;3.10;;
78732;SDS011;68056;52.530;5.454;2023-07-09T14:29:18;5.97;;;2.88;;
78732;SDS011;68056;52.530;5.454;2023-07-09T14:31:44;5.45;;;2.50;;
78732;SDS011;68056;52.530;5.454;2023-07-09T14:34:21;6.25;;;2.83;;
78732;SDS011;68056;52.530;5.454;2023-07-09T14:36:56;7.85;;;2.78;;
78732;SDS011;68056;52.530;5.454;2023-07-09T14:39:23;9.80;;;3.63;;
78732;SDS011;68056;52.530;5.454;2023-07-09T14:41:50;7.20;;;2.75;;
78732;SDS011;68056;52.530;5.454;2023-07-09T14:46:48;6.25;;;3.15;;
78732;SDS011;68056;52.530;5.454;2023-07-09T14:49:18;6.97;;;3.20;;
78732;SDS011;68056;52.530;5.454;2023-07-09T14:51:45;4.05;;;2.65;;
78732;SDS011;68056;52.530;5.454;2023-07-09T14:56:47;6.72;;;3.58;;
78732;SDS011;68056;52.530;5.454;2023-07-09T14:59:14;9.20;;;3.55;;
78732;SDS011;68056;52.530;5.454;2023-07-09T15:01:39;5.75;;;3.50;;
78732;SDS011;68056;52.530;5.454;2023-07-09T15:04:22;7.30;;;3.63;;
78732;SDS011;68056;52.530;5.454;2023-07-09T15:06:54;6.07;;;3.83;;
78732;SDS011;68056;52.530;5.454;2023-07-09T15:09:21;8.40;;;4.85;;
78732;SDS011;68056;52.530;5.454;2023-07-09T15:11:50;9.85;;;5.75;;
78732;SDS011;68056;52.530;5.454;2023-07-09T15:14:18;8.55;;;5.95;;
78732;SDS011;68056;52.530;5.454;2023-07-09T15:16:45;9.40;;;6.40;;
78732;SDS011;68056;52.530;5.454;2023-07-09T15:19:12;10.85;;;7.15;;
78732;SDS011;68056;52.530;5.454;2023-07-09T15:21:39;13.40;;;6.57;;
78732;SDS011;68056;52.530;5.454;2023-07-09T15:24:06;11.10;;;6.65;;
78732;SDS011;68056;52.530;5.454;2023-07-09T15:26:39;8.68;;;6.45;;
78732;SDS011;68056;52.530;5.454;2023-07-09T15:29:09;9.32;;;6.40;;
78732;SDS011;68056;52.530;5.454;2023-07-09T15:34:04;9.57;;;6.75;;
78732;SDS011;68056;52.530;5.454;2023-07-09T15:36:29;13.93;;;6.88;;
78732;SDS011;68056;52.530;5.454;2023-07-09T15:38:55;10.73;;;5.03;;
78732;SDS011;68056;52.530;5.454;2023-07-09T15:41:20;8.00;;;3.55;;
78732;SDS011;68056;52.530;5.454;2023-07-09T15:43:46;5.40;;;3.53;;
78732;SDS011;68056;52.530;5.454;2023-07-09T15:46:20;6.55;;;3.63;;
78732;SDS011;68056;52.530;5.454;2023-07-09T15:48:49;6.22;;;3.40;;
78732;SDS011;68056;52.530;5.454;2023-07-09T15:51:15;6.50;;;3.92;;
78732;SDS011;68056;52.530;5.454;2023-07-09T15:53:41;7.25;;;5.60;;
78732;SDS011;68056;52.530;5.454;2023-07-09T15:58:47;7.88;;;5.55;;
78732;SDS011;68056;52.530;5.454;2023-07-09T16:01:13;11.25;;;5.55;;
78732;SDS011;68056;52.530;5.454;2023-07-09T16:03:50;9.93;;;6.30;;